| time (UTC) | temp C | wind direction | speed KPH | gust KPH | rain 1hr cm | rain 24hr cm | rain mn cm | humidity % | barometer mb |
| 20260507205004 | 14 | 191 | 8.0 | 11.3 | 0.00 | 0.33 | 0.13 | 68 | 1012.0 |
| 20260507204504 | 14 | 160 | 1.6 | 8.0 | 0.00 | 0.33 | 0.13 | 69 | 1011.9 |
| 20260507203504 | 14 | 191 | 6.4 | 12.9 | 0.00 | 0.33 | 0.13 | 71 | 1011.9 |
| 20260507202504 | 14 | 196 | 9.7 | 12.9 | 0.00 | 0.33 | 0.13 | 73 | 1011.9 |
| 20260507201504 | 13 | 329 | 0.0 | 4.8 | 0.00 | 0.33 | 0.13 | 72 | 1012.0 |
| 20260507201004 | 13 | 25 | 0.0 | 0.0 | 0.00 | 0.33 | 0.13 | 71 | 1012.1 |
| 20260507200504 | 13 | 25 | 1.6 | 9.7 | 0.00 | 0.33 | 0.13 | 70 | 1012.2 |
| 20260507200004 | 13 | 175 | 8.0 | 9.7 | 0.00 | 0.33 | 0.13 | 72 | 1012.4 |
| 20260507195503 | 13 | 239 | 4.8 | 12.9 | 0.00 | 0.33 | 0.13 | 73 | 1012.5 |
| 20260507195004 | 13 | 246 | 4.8 | 16.1 | 0.00 | 0.33 | 0.13 | 73 | 1012.6 |
| 20260507194004 | 13 | 203 | 4.8 | 9.7 | 0.00 | 0.33 | 0.13 | 75 | 1013.0 |
| 20260507193504 | 13 | 232 | 1.6 | 8.0 | 0.00 | 0.33 | 0.13 | 76 | 1013.0 |
| 20260507193004 | 13 | 205 | 0.0 | 8.0 | 0.00 | 0.33 | 0.13 | 74 | 1013.2 |
| 20260507192503 | 13 | 34 | 0.0 | 8.0 | 0.00 | 0.33 | 0.13 | 75 | 1013.2 |
| 20260507191504 | 13 | 244 | 9.7 | 16.1 | 0.00 | 0.33 | 0.13 | 74 | 1013.4 |
| 20260507191004 | 13 | 187 | 8.0 | 11.3 | 0.00 | 0.33 | 0.13 | 76 | 1013.3 |
| 20260507190504 | 13 | 181 | 0.0 | 3.2 | 0.00 | 0.33 | 0.13 | 77 | 1013.3 |
| 20260507190005 | 13 | 165 | 0.0 | 8.0 | 0.00 | 0.33 | 0.13 | 78 | 1013.4 |
| 20260507185504 | 13 | 136 | 0.0 | 3.2 | 0.03 | 0.33 | 0.13 | 81 | 1013.5 |
| 20260507185004 | 12 | 126 | 0.0 | 0.0 | 0.03 | 0.33 | 0.13 | 81 | 1013.6 |
| 20260507184504 | 12 | 126 | 0.0 | 0.0 | 0.03 | 0.33 | 0.13 | 80 | 1013.6 |
| 20260507183504 | 13 | 126 | 0.0 | 0.0 | 0.03 | 0.33 | 0.13 | 80 | 1013.6 |
| 20260507183003 | 12 | 126 | 0.0 | 0.0 | 0.03 | 0.33 | 0.13 | 81 | 1013.7 |
| 20260507182502 | 12 | 151 | 1.6 | 1.6 | 0.03 | 0.33 | 0.13 | 80 | 1013.6 |
| 20260507182002 | 12 | 123 | 0.0 | 0.0 | 0.03 | 0.33 | 0.13 | 81 | 1013.6 |
| 20260507181502 | 12 | 123 | 0.0 | 0.0 | 0.03 | 0.33 | 0.13 | 81 | 1013.5 |
| 20260507181002 | 12 | 123 | 0.0 | 1.6 | 0.03 | 0.33 | 0.13 | 81 | 1013.5 |
| 20260507180502 | 12 | 167 | 1.6 | 3.2 | 0.10 | 0.33 | 0.13 | 80 | 1013.6 |
| 20260507180002 | 12 | 185 | 0.0 | 0.0 | 0.13 | 0.33 | 0.13 | 81 | 1013.6 |
| 20260507175503 | 12 | 185 | 0.0 | 0.0 | 0.10 | 0.30 | 0.10 | 82 | 1013.6 |
| 20260507175003 | 12 | 182 | 1.6 | 4.8 | 0.10 | 0.30 | 0.10 | 83 | 1013.7 |
| 20260507174003 | 12 | 297 | 0.0 | 4.8 | 0.10 | 0.30 | 0.10 | 81 | 1013.7 |
| 20260507173503 | 12 | 255 | 0.0 | 4.8 | 0.10 | 0.30 | 0.10 | 82 | 1013.7 |
| 20260507172503 | 12 | 275 | 3.2 | 4.8 | 0.10 | 0.30 | 0.10 | 81 | 1013.8 |
| 20260507171503 | 12 | 62 | 0.0 | 0.0 | 0.10 | 0.30 | 0.10 | 80 | 1013.6 |
| 20260507171002 | 12 | 62 | 1.6 | 11.3 | 0.10 | 0.30 | 0.10 | 78 | 1013.8 |
| 20260507170002 | 12 | 61 | 8.0 | 14.5 | 0.00 | 0.20 | 0.00 | 76 | 1013.7 |
| 20260507165503 | 12 | 105 | 6.4 | 9.7 | 0.00 | 0.20 | 0.00 | 75 | 1013.8 |
| 20260507165003 | 12 | 324 | 3.2 | 11.3 | 0.00 | 0.20 | 0.00 | 75 | 1013.8 |
| 20260507164502 | 12 | 113 | 4.8 | 11.3 | 0.00 | 0.23 | 0.00 | 74 | 1013.8 |
| 20260507164003 | 12 | 32 | 4.8 | 9.7 | 0.00 | 0.23 | 0.00 | 74 | 1013.8 |
| 20260507163503 | 12 | 41 | 3.2 | 9.7 | 0.00 | 0.23 | 0.00 | 74 | 1013.6 |
| 20260507162502 | 12 | 49 | 0.0 | 11.3 | 0.00 | 0.23 | 0.00 | 74 | 1013.8 |
| 20260507162002 | 13 | 81 | 1.6 | 12.9 | 0.00 | 0.23 | 0.00 | 75 | 1013.7 |
| 20260507161503 | 13 | 90 | 1.6 | 8.0 | 0.00 | 0.23 | 0.00 | 74 | 1013.6 |
| 20260507161003 | 13 | 259 | 3.2 | 8.0 | 0.00 | 0.23 | 0.00 | 75 | 1013.7 |
| 20260507160003 | 13 | 17 | 4.8 | 9.7 | 0.00 | 0.23 | 0.00 | 75 | 1013.8 |
| 20260507155503 | 13 | 151 | 6.4 | 14.5 | 0.00 | 0.23 | 0.00 | 75 | 1013.8 |
| 20260507155003 | 13 | 59 | 8.0 | 11.3 | 0.00 | 0.23 | 0.00 | 75 | 1013.9 |
| 20260507154503 | 13 | 81 | 4.8 | 8.0 | 0.00 | 0.23 | 0.00 | 76 | 1014.0 |
| 20260507154002 | 13 | 75 | 3.2 | 4.8 | 0.00 | 0.23 | 0.00 | 77 | 1014.1 |
| 20260507153502 | 13 | 28 | 1.6 | 8.0 | 0.00 | 0.23 | 0.00 | 76 | 1014.1 |
| 20260507153002 | 13 | 133 | 0.0 | 0.0 | 0.00 | 0.23 | 0.00 | 76 | 1014.1 |
| 20260507152502 | 13 | 133 | 1.6 | 8.0 | 0.00 | 0.23 | 0.00 | 76 | 1014.1 |
| 20260507152003 | 13 | 50 | 9.7 | 11.3 | 0.00 | 0.23 | 0.00 | 76 | 1014.0 |
| 20260507151502 | 13 | 18 | 1.6 | 9.7 | 0.00 | 0.23 | 0.00 | 77 | 1014.0 |
| 20260507151002 | 13 | 90 | 4.8 | 11.3 | 0.00 | 0.23 | 0.00 | 77 | 1014.0 |
| 20260507150003 | 13 | 113 | 4.8 | 14.5 | 0.00 | 0.23 | 0.00 | 76 | 1014.0 |
| 20260507145503 | 13 | 116 | 4.8 | 9.7 | 0.00 | 0.23 | 0.00 | 77 | 1013.9 |
| 20260507145003 | 13 | 58 | 4.8 | 9.7 | 0.00 | 0.23 | 0.00 | 76 | 1013.8 |
| 20260507144002 | 13 | 68 | 1.6 | 4.8 | 0.00 | 0.23 | 0.00 | 76 | 1013.8 |
| 20260507143502 | 13 | 178 | 0.0 | 4.8 | 0.00 | 0.23 | 0.00 | 77 | 1013.7 |
| 20260507142503 | 13 | 274 | 3.2 | 8.0 | 0.00 | 0.23 | 0.00 | 77 | 1013.7 |
| 20260507142003 | 13 | 246 | 4.8 | 8.0 | 0.00 | 0.23 | 0.00 | 78 | 1013.7 |
| 20260507141503 | 14 | 219 | 0.0 | 1.6 | 0.00 | 0.23 | 0.00 | 78 | 1013.7 |
| 20260507141003 | 14 | 216 | 1.6 | 9.7 | 0.00 | 0.23 | 0.00 | 77 | 1013.9 |
| 20260507140503 | 14 | 155 | 3.2 | 8.0 | 0.00 | 0.23 | 0.00 | 77 | 1013.9 |
| 20260507140003 | 14 | 66 | 0.0 | 0.0 | 0.00 | 0.23 | 0.00 | 79 | 1013.5 |
| 20260507135502 | 14 | 66 | 0.0 | 0.0 | 0.00 | 0.23 | 0.00 | 79 | 1013.4 |
| 20260507135003 | 14 | 66 | 0.0 | 0.0 | 0.00 | 0.25 | 0.00 | 79 | 1013.5 |
| 20260507134003 | 14 | 66 | 0.0 | 0.0 | 0.00 | 0.25 | 0.00 | 78 | 1014.1 |
| 20260507133503 | 14 | 66 | 0.0 | 3.2 | 0.00 | 0.28 | 0.00 | 78 | 1014.1 |
| 20260507133003 | 14 | 286 | 3.2 | 4.8 | 0.00 | 0.28 | 0.00 | 79 | 1014.0 |
| 20260507132003 | 14 | 49 | 1.6 | 3.2 | 0.00 | 0.28 | 0.00 | 78 | 1014.0 |
| 20260507131502 | 14 | 234 | 4.8 | 11.3 | 0.00 | 0.28 | 0.00 | 79 | 1014.0 |
| 20260507131003 | 14 | 124 | 0.0 | 3.2 | 0.00 | 0.28 | 0.00 | 79 | 1014.2 |
| 20260507130503 | 14 | 181 | 3.2 | 9.7 | 0.00 | 0.28 | 0.00 | 79 | 1014.2 |
| 20260507125503 | 14 | 222 | 1.6 | 9.7 | 0.00 | 0.30 | 0.00 | 80 | 1013.8 |
| 20260507125003 | 14 | 130 | 0.0 | 4.8 | 0.00 | 0.30 | 0.00 | 79 | 1013.9 |
| 20260507124503 | 13 | 286 | 1.6 | 8.0 | 0.00 | 0.30 | 0.00 | 80 | 1014.0 |
| 20260507123003 | 13 | 304 | 3.2 | 9.7 | 0.00 | 0.30 | 0.00 | 80 | 1014.1 |
| 20260507122004 | 13 | 157 | 1.6 | 4.8 | 0.00 | 0.30 | 0.00 | 80 | 1014.0 |
| 20260507121503 | 13 | 272 | 1.6 | 9.7 | 0.00 | 0.30 | 0.00 | 80 | 1014.1 |
| 20260507120003 | 13 | 336 | 11.3 | 14.5 | 0.00 | 0.30 | 0.00 | 79 | 1014.1 |
| 20260507115503 | 13 | 310 | 4.8 | 9.7 | 0.00 | 0.30 | 0.00 | 80 | 1014.0 |
| 20260507114503 | 13 | 174 | 0.0 | 3.2 | 0.00 | 0.30 | 0.00 | 79 | 1013.9 |
| 20260507114003 | 13 | 7 | 1.6 | 9.7 | 0.00 | 0.30 | 0.00 | 78 | 1013.8 |
| 20260507113503 | 13 | 254 | 3.2 | 12.9 | 0.00 | 0.30 | 0.00 | 78 | 1013.8 |
| 20260507113003 | 13 | 355 | 1.6 | 3.2 | 0.00 | 0.30 | 0.00 | 79 | 1013.7 |
| 20260507112503 | 13 | 338 | 1.6 | 8.0 | 0.00 | 0.30 | 0.00 | 79 | 1013.5 |
| 20260507112003 | 13 | 1 | 0.0 | 1.6 | 0.00 | 0.30 | 0.00 | 79 | 1013.4 |
| 20260507111503 | 13 | 10 | 4.8 | 11.3 | 0.00 | 0.30 | 0.00 | 80 | 1013.5 |
| 20260507111003 | 13 | 50 | 3.2 | 8.0 | 0.00 | 0.30 | 0.00 | 81 | 1013.4 |
| 20260507110503 | 14 | 191 | 0.0 | 0.0 | 0.00 | 0.30 | 0.00 | 82 | 1013.3 |
| 20260507105503 | 13 | 191 | 0.0 | 0.0 | 0.00 | 0.30 | 0.00 | 82 | 1013.4 |
| 20260507105004 | 13 | 194 | 4.8 | 4.8 | 0.00 | 0.30 | 0.00 | 81 | 1013.4 |
| 20260507104503 | 13 | 263 | 4.8 | 11.3 | 0.00 | 0.30 | 0.00 | 82 | 1013.3 |
| 20260507104003 | 14 | 31 | 0.0 | 3.2 | 0.00 | 0.30 | 0.00 | 83 | 1013.2 |
| 20260507103503 | 14 | 13 | 3.2 | 8.0 | 0.00 | 0.30 | 0.00 | 82 | 1013.1 |
| 20260507103003 | 14 | 338 | 3.2 | 8.0 | 0.00 | 0.30 | 0.00 | 82 | 1013.1 |
| 20260507102503 | 14 | 63 | 4.8 | 8.0 | 0.00 | 0.30 | 0.00 | 82 | 1013.2 |
| 20260507102003 | 14 | 2 | 3.2 | 9.7 | 0.00 | 0.30 | 0.00 | 82 | 1013.1 |
| 20260507101503 | 14 | 291 | 0.0 | 1.6 | 0.00 | 0.30 | 0.00 | 82 | 1013.2 |
| 20260507101003 | 14 | 337 | 4.8 | 14.5 | 0.00 | 0.30 | 0.00 | 82 | 1013.3 |
| 20260507100503 | 14 | 334 | 0.0 | 3.2 | 0.00 | 0.30 | 0.00 | 82 | 1013.2 |
| 20260507100003 | 14 | 224 | 6.4 | 11.3 | 0.00 | 0.30 | 0.00 | 83 | 1013.1 |
| 20260507095004 | 14 | 47 | 1.6 | 8.0 | 0.00 | 0.30 | 0.00 | 83 | 1013.0 |
| 20260507094503 | 14 | 39 | 1.6 | 9.7 | 0.00 | 0.30 | 0.00 | 84 | 1013.3 |
| 20260507094003 | 14 | 182 | 1.6 | 8.0 | 0.00 | 0.30 | 0.00 | 84 | 1013.4 |
| 20260507093503 | 14 | 39 | 4.8 | 11.3 | 0.00 | 0.30 | 0.00 | 84 | 1012.8 |
| 20260507093003 | 14 | 6 | 12.9 | 12.9 | 0.00 | 0.30 | 0.00 | 84 | 1013.0 |
| 20260507092004 | 15 | 237 | 0.0 | 0.0 | 0.00 | 0.30 | 0.00 | 85 | 1013.4 |
| 20260507091503 | 15 | 237 | 0.0 | 0.0 | 0.00 | 0.30 | 0.00 | 85 | 1013.2 |
| 20260507091003 | 15 | 237 | 0.0 | 0.0 | 0.00 | 0.30 | 0.00 | 84 | 1013.1 |
| 20260507090004 | 15 | 237 | 0.0 | 0.0 | 0.00 | 0.30 | 0.00 | 83 | 1012.4 |
| 20260507085503 | 15 | 237 | 0.0 | 0.0 | 0.00 | 0.30 | 0.00 | 83 | 1012.4 |
| 20260507085003 | 15 | 237 | 1.6 | 4.8 | 0.00 | 0.30 | 0.00 | 82 | 1012.7 |
| 20260507084503 | 15 | 257 | 0.0 | 0.0 | 0.00 | 0.30 | 0.00 | 83 | 1012.6 |
| 20260507084003 | 15 | 257 | 0.0 | 4.8 | 0.00 | 0.30 | 0.00 | 84 | 1013.0 |
| 20260507083503 | 15 | 306 | 1.6 | 8.0 | 0.00 | 0.30 | 0.00 | 85 | 1013.0 |
| 20260507082503 | 15 | 253 | 1.6 | 4.8 | 0.00 | 0.30 | 0.00 | 86 | 1013.0 |
| 20260507082003 | 15 | 231 | 4.8 | 4.8 | 0.00 | 0.30 | 0.00 | 85 | 1013.0 |
| 20260507081503 | 15 | 233 | 0.0 | 3.2 | 0.00 | 0.30 | 0.00 | 86 | 1013.0 |
| 20260507081003 | 15 | 270 | 1.6 | 3.2 | 0.00 | 0.30 | 0.00 | 85 | 1013.0 |
| 20260507080503 | 15 | 284 | 0.0 | 3.2 | 0.00 | 0.30 | 0.00 | 86 | 1013.0 |
| 20260507080003 | 15 | 295 | 6.4 | 4.8 | 0.00 | 0.30 | 0.00 | 86 | 1013.3 |
| 20260507074504 | 15 | 274 | 0.0 | 0.0 | 0.00 | 0.30 | 0.00 | 85 | 1013.2 |
| 20260507074004 | 15 | 274 | 0.0 | 0.0 | 0.00 | 0.30 | 0.00 | 85 | 1013.3 |
| 20260507073503 | 15 | 274 | 0.0 | 0.0 | 0.00 | 0.30 | 0.00 | 85 | 1013.3 |
| 20260507073003 | 15 | 274 | 0.0 | 0.0 | 0.00 | 0.30 | 0.00 | 85 | 1013.1 |
| 20260507072003 | 15 | 274 | 0.0 | 0.0 | 0.00 | 0.30 | 0.00 | 85 | 1013.2 |
| 20260507071504 | 15 | 274 | 0.0 | 0.0 | 0.00 | 0.30 | 0.00 | 84 | 1013.1 |
| 20260507071004 | 15 | 274 | 1.6 | 8.0 | 0.00 | 0.30 | 0.00 | 83 | 1012.8 |
| 20260507070005 | 16 | 291 | 0.0 | 9.7 | 0.00 | 0.30 | 0.00 | 85 | 1012.8 |
| 20260507065503 | 16 | 249 | 1.6 | 8.0 | 0.00 | 0.30 | 0.00 | 86 | 1013.2 |
| 20260507065003 | 15 | 326 | 0.0 | 4.8 | 0.00 | 0.30 | 0.00 | 87 | 1012.7 |
| 20260507064503 | 16 | 220 | 4.8 | 12.9 | 0.00 | 0.30 | 0.00 | 87 | 1012.8 |
| 20260507063503 | 15 | 359 | 6.4 | 19.3 | 0.00 | 0.30 | 0.00 | 86 | 1013.1 |
| 20260507063003 | 15 | 18 | 8.0 | 16.1 | 0.00 | 0.30 | 0.00 | 86 | 1013.2 |
| 20260507062503 | 15 | 14 | 0.0 | 0.0 | 0.00 | 0.30 | 0.00 | 88 | 1012.8 |
| 20260507062003 | 15 | 17 | 1.6 | 3.2 | 0.00 | 0.30 | 0.00 | 88 | 1012.7 |
| 20260507061503 | 15 | 288 | 0.0 | 0.0 | 0.00 | 0.30 | 0.00 | 88 | 1012.8 |
| 20260507061004 | 15 | 288 | 0.0 | 3.2 | 0.00 | 0.30 | 0.00 | 89 | 1012.6 |
| 20260507060503 | 15 | 7 | 4.8 | 11.3 | 0.00 | 0.30 | 0.00 | 89 | 1012.5 |
| 20260507060003 | 15 | 41 | 9.7 | 12.9 | 0.00 | 0.30 | 0.00 | 89 | 1012.7 |
| 20260507055503 | 16 | 30 | 6.4 | 11.3 | 0.00 | 0.30 | 0.00 | 89 | 1013.2 |
| 20260507055004 | 15 | 48 | 0.0 | 0.0 | 0.00 | 0.30 | 0.00 | 89 | 1013.2 |
| 20260507054503 | 15 | 48 | 0.0 | 3.2 | 0.00 | 0.30 | 0.00 | 89 | 1013.4 |
| 20260507054003 | 15 | 64 | 3.2 | 4.8 | 0.00 | 0.30 | 0.00 | 89 | 1013.2 |
| 20260507053004 | 15 | 63 | 11.3 | 16.1 | 0.00 | 0.30 | 0.00 | 87 | 1013.2 |
| 20260507052503 | 16 | 33 | 16.1 | 16.1 | 0.00 | 0.30 | 0.00 | 86 | 1013.4 |
| 20260507052003 | 16 | 195 | 0.0 | 0.0 | 0.00 | 0.30 | 0.00 | 87 | 1013.4 |
| 20260507051503 | 16 | 195 | 0.0 | 0.0 | 0.00 | 0.30 | 0.00 | 87 | 1013.2 |
| 20260507051003 | 16 | 195 | 0.0 | 0.0 | 0.00 | 0.30 | 0.00 | 87 | 1013.3 |
| 20260507050503 | 16 | 195 | 0.0 | 0.0 | 0.00 | 0.30 | 0.00 | 87 | 1013.1 |
| 20260507050003 | 16 | 195 | 0.0 | 3.2 | 0.00 | 0.30 | 0.00 | 86 | 1013.2 |
| 20260507045504 | 16 | 223 | 0.0 | 0.0 | 0.00 | 0.30 | 0.00 | 86 | 1013.1 |
| 20260507045004 | 16 | 223 | 0.0 | 0.0 | 0.00 | 0.30 | 0.00 | 86 | 1012.8 |
| 20260507044503 | 16 | 223 | 0.0 | 0.0 | 0.00 | 0.30 | 0.00 | 86 | 1012.8 |
| 20260507044004 | 16 | 223 | 0.0 | 3.2 | 0.00 | 0.30 | 0.00 | 86 | 1012.8 |
| 20260507043504 | 16 | 195 | 0.0 | 3.2 | 0.00 | 0.30 | 0.00 | 86 | 1012.7 |
| 20260507042503 | 16 | 295 | 0.0 | 0.0 | 0.00 | 0.30 | 0.00 | 86 | 1013.0 |
| 20260507042003 | 16 | 295 | 0.0 | 0.0 | 0.00 | 0.30 | 0.00 | 86 | 1013.1 |
| 20260507041504 | 16 | 297 | 1.6 | 3.2 | 0.03 | 0.30 | 0.00 | 86 | 1013.2 |
| 20260507041004 | 16 | 325 | 0.0 | 4.8 | 0.03 | 0.30 | 0.00 | 86 | 1013.1 |
| 20260507040004 | 16 | 234 | 0.0 | 8.0 | 0.03 | 0.30 | 0.00 | 86 | 1013.2 |
| 20260507035504 | 16 | 44 | 1.6 | 3.2 | 0.03 | 0.30 | 0.30 | 86 | 1013.3 |
| 20260507035003 | 16 | 282 | 1.6 | 4.8 | 0.03 | 0.30 | 0.30 | 86 | 1013.1 |
| 20260507034503 | 16 | 124 | 1.6 | 9.7 | 0.03 | 0.30 | 0.30 | 86 | 1013.4 |
| 20260507034004 | 16 | 17 | 0.0 | 1.6 | 0.03 | 0.30 | 0.30 | 86 | 1013.5 |
| 20260507033503 | 16 | 17 | 0.0 | 0.0 | 0.03 | 0.30 | 0.30 | 86 | 1013.5 |
| 20260507033004 | 16 | 17 | 0.0 | 3.2 | 0.08 | 0.30 | 0.30 | 86 | 1013.7 |
| 20260507032503 | 16 | 154 | 1.6 | 9.7 | 0.13 | 0.30 | 0.30 | 86 | 1014.1 |
| 20260507032003 | 16 | 81 | 0.0 | 0.0 | 0.15 | 0.30 | 0.30 | 85 | 1014.4 |
| 20260507031504 | 16 | 81 | 0.0 | 0.0 | 0.13 | 0.28 | 0.28 | 84 | 1014.5 |
| 20260507031004 | 16 | 81 | 0.0 | 3.2 | 0.15 | 0.28 | 0.28 | 84 | 1014.4 |
| 20260507030503 | 17 | 40 | 0.0 | 8.0 | 0.15 | 0.28 | 0.28 | 84 | 1014.4 |
| 20260507030003 | 17 | 70 | 8.0 | 12.9 | 0.15 | 0.28 | 0.28 | 84 | 1014.4 |
| 20260507025004 | 17 | 335 | 3.2 | 4.8 | 0.15 | 0.28 | 0.28 | 83 | 1014.1 |
| 20260507024503 | 17 | 272 | 4.8 | 9.7 | 0.15 | 0.28 | 0.28 | 83 | 1014.0 |
| 20260507024004 | 17 | 243 | 11.3 | 12.9 | 0.15 | 0.28 | 0.28 | 82 | 1013.8 |
| 20260507023004 | 17 | 169 | 3.2 | 9.7 | 0.10 | 0.23 | 0.23 | 80 | 1014.1 |
| 20260507022503 | 17 | 291 | 3.2 | 9.7 | 0.05 | 0.18 | 0.18 | 80 | 1014.6 |
| 20260507021504 | 17 | 249 | 9.7 | 12.9 | 0.03 | 0.15 | 0.15 | 77 | 1014.1 |
| 20260507021003 | 18 | 235 | 9.7 | 11.3 | 0.00 | 0.13 | 0.13 | 76 | 1013.9 |
| 20260507020503 | 18 | 231 | 3.2 | 12.9 | 0.00 | 0.13 | 0.13 | 75 | 1013.5 |
| 20260507015504 | 18 | 290 | 3.2 | 16.1 | 0.00 | 0.13 | 0.13 | 73 | 1013.6 |
| 20260507014503 | 18 | 193 | 9.7 | 11.3 | 0.00 | 0.13 | 0.13 | 71 | 1013.4 |
| 20260507014004 | 18 | 224 | 11.3 | 14.5 | 0.00 | 0.13 | 0.13 | 70 | 1013.2 |
| 20260507013503 | 18 | 243 | 20.9 | 29.0 | 0.00 | 0.13 | 0.13 | 71 | 1013.2 |
| 20260507013003 | 18 | 200 | 8.0 | 20.9 | 0.00 | 0.13 | 0.13 | 70 | 1013.0 |
| 20260507012503 | 18 | 223 | 11.3 | 29.0 | 0.00 | 0.13 | 0.13 | 74 | 1013.0 |
| 20260507012004 | 17 | 161 | 8.0 | 12.9 | 0.00 | 0.13 | 0.13 | 77 | 1013.1 |
| 20260507010504 | 18 | 329 | 0.0 | 1.6 | 0.00 | 0.13 | 0.13 | 75 | 1013.4 |
| 20260507010004 | 18 | 326 | 0.0 | 0.0 | 0.00 | 0.13 | 0.13 | 75 | 1013.4 |
| 20260507005503 | 18 | 346 | 0.0 | 3.2 | 0.00 | 0.13 | 0.13 | 75 | 1013.4 |
| 20260507005003 | 18 | 315 | 0.0 | 3.2 | 0.00 | 0.13 | 0.13 | 74 | 1013.4 |
| 20260507004503 | 18 | 304 | 0.0 | 0.0 | 0.00 | 0.13 | 0.13 | 74 | 1013.2 |
| 20260507004003 | 18 | 306 | 3.2 | 4.8 | 0.00 | 0.13 | 0.13 | 74 | 1013.3 |
| 20260507003004 | 18 | 220 | 0.0 | 3.2 | 0.00 | 0.13 | 0.13 | 73 | 1012.8 |
| 20260507002504 | 18 | 254 | 3.2 | 4.8 | 0.00 | 0.13 | 0.13 | 73 | 1013.0 |
| 20260507002004 | 18 | 307 | 3.2 | 8.0 | 0.00 | 0.13 | 0.13 | 73 | 1012.8 |
| 20260507001503 | 18 | 126 | 3.2 | 9.7 | 0.00 | 0.13 | 0.13 | 72 | 1013.1 |
| 20260507001004 | 18 | 305 | 4.8 | 4.8 | 0.00 | 0.13 | 0.13 | 72 | 1012.8 |
| 20260507000503 | 18 | 299 | 0.0 | 1.6 | 0.00 | 0.13 | 0.13 | 71 | 1012.5 |
| 20260507000004 | 19 | 302 | 1.6 | 4.8 | 0.00 | 0.13 | 0.13 | 71 | 1012.6 |
| 20260506235504 | 19 | 244 | 0.0 | 0.0 | 0.00 | 0.13 | 0.13 | 71 | 1012.5 |
| 20260506235004 | 19 | 244 | 1.6 | 4.8 | 0.00 | 0.13 | 0.13 | 70 | 1012.6 |
| 20260506234004 | 19 | 261 | 6.4 | 8.0 | 0.00 | 0.13 | 0.13 | 70 | 1013.0 |
| 20260506233503 | 19 | 350 | 1.6 | 11.3 | 0.00 | 0.13 | 0.13 | 70 | 1013.0 |
| 20260506233004 | 19 | 13 | 1.6 | 9.7 | 0.00 | 0.13 | 0.13 | 70 | 1013.1 |
| 20260506232503 | 19 | 71 | 4.8 | 8.0 | 0.00 | 0.13 | 0.13 | 70 | 1013.1 |
| 20260506232004 | 20 | 42 | 4.8 | 8.0 | 0.00 | 0.13 | 0.13 | 69 | 1013.0 |
| 20260506231003 | 20 | 234 | 1.6 | 16.1 | 0.00 | 0.13 | 0.13 | 64 | 1012.5 |
| 20260506230503 | 20 | 265 | 9.7 | 27.4 | 0.00 | 0.13 | 0.13 | 64 | 1012.3 |
| 20260506230004 | 20 | 39 | 8.0 | 12.9 | 0.00 | 0.13 | 0.13 | 62 | 1012.4 |
| 20260506225503 | 20 | 279 | 11.3 | 16.1 | 0.00 | 0.13 | 0.13 | 62 | 1012.7 |
| 20260506225003 | 20 | 330 | 8.0 | 24.1 | 0.00 | 0.13 | 0.13 | 62 | 1012.8 |
| 20260506224504 | 20 | 218 | 16.1 | 24.1 | 0.00 | 0.13 | 0.13 | 62 | 1013.0 |
| 20260506224003 | 20 | 262 | 1.6 | 24.1 | 0.00 | 0.13 | 0.13 | 62 | 1013.2 |
| 20260506223503 | 20 | 193 | 11.3 | 20.9 | 0.00 | 0.13 | 0.13 | 61 | 1013.2 |
| 20260506223004 | 20 | 173 | 4.8 | 12.9 | 0.00 | 0.13 | 0.13 | 62 | 1013.2 |
| 20260506222503 | 20 | 252 | 16.1 | 22.5 | 0.00 | 0.13 | 0.13 | 61 | 1013.2 |
| 20260506222004 | 20 | 329 | 1.6 | 12.9 | 0.00 | 0.13 | 0.13 | 62 | 1013.1 |
| 20260506221504 | 20 | 179 | 8.0 | 16.1 | 0.03 | 0.13 | 0.13 | 61 | 1013.0 |
| 20260506221003 | 21 | 212 | 4.8 | 16.1 | 0.03 | 0.13 | 0.13 | 62 | 1012.7 |
| 20260506220503 | 21 | 208 | 6.4 | 12.9 | 0.03 | 0.13 | 0.13 | 61 | 1012.8 |
| 20260506220004 | 21 | 285 | 8.0 | 14.5 | 0.03 | 0.13 | 0.13 | 61 | 1013.0 |
| 20260506215503 | 21 | 265 | 9.7 | 16.1 | 0.03 | 0.13 | 0.13 | 60 | 1012.8 |
| 20260506215004 | 21 | 209 | 6.4 | 19.3 | 0.03 | 0.13 | 0.13 | 61 | 1012.7 |
| 20260506214504 | 21 | 314 | 9.7 | 19.3 | 0.03 | 0.13 | 0.13 | 59 | 1012.6 |
| 20260506214003 | 21 | 330 | 9.7 | 14.5 | 0.03 | 0.13 | 0.13 | 61 | 1012.6 |
| 20260506213504 | 21 | 210 | 11.3 | 19.3 | 0.03 | 0.13 | 0.13 | 61 | 1012.5 |
| 20260506212504 | 20 | 7 | 14.5 | 24.1 | 0.03 | 0.13 | 0.13 | 66 | 1012.5 |
| 20260506212004 | 20 | 65 | 1.6 | 14.5 | 0.03 | 0.13 | 0.13 | 68 | 1012.6 |
| 20260506211004 | 20 | 183 | 8.0 | 16.1 | 0.00 | 0.10 | 0.10 | 71 | 1012.6 |
| 20260506210504 | 20 | 352 | 1.6 | 4.8 | 0.00 | 0.10 | 0.10 | 71 | 1012.5 |
| 20260506210004 | 20 | 44 | 4.8 | 8.0 | 0.00 | 0.10 | 0.10 | 71 | 1012.3 |